Annapolis Royal, Canada
Current Conditions -  °F | °C
As of 2:00 PM on Monday 26 Jan 2015 (Local Time) from CYZX Reporting Station
Broken Clouds Broken Clouds  
Wind Chill:   Ceiling: 25000
Heat Index: 16°   Visibility: 15mi
Dew Point:   Wind: 9mph
Humidity: 73%   Direction: 270°W
Pressure: 30.21"   Gusts: NA
Location:  44.73°N, 65.52°W
Report Text: CYZX 261800Z 27008KT 15SM FEW030 BKN250 M09/M13 A3021 RMK SC1CI2 WNDY HILL 30006KT SLP232
Loading
Personal Weather Stations






























Interactive Weather Map New forecast layout! Learn more

10-Day Weather Forecast

Advertisements
Track Severe Weather on mobile